createdAt,value
2024-04-22T00:00:05.414Z,-1.39
2024-04-22T00:00:34.498Z,-1.51
2024-04-22T00:01:07.412Z,-1.51
2024-04-22T00:01:38.397Z,-1.51
2024-04-22T00:02:10.481Z,-1.35
2024-04-22T00:02:37.728Z,-1.35
2024-04-22T00:02:58.324Z,-1.35
2024-04-22T00:03:30.267Z,-1.35
2024-04-22T00:04:02.306Z,-1.35
2024-04-22T00:04:34.528Z,-1.35
2024-04-22T00:05:07.916Z,-1.35
2024-04-22T00:05:38.543Z,-1.35
2024-04-22T00:06:10.785Z,-1.35
2024-04-22T00:06:37.725Z,-1.35
2024-04-22T00:06:58.566Z,-1.46
2024-04-22T00:07:30.280Z,-1.46
2024-04-22T00:08:02.342Z,-1.46
2024-04-22T00:08:34.411Z,-1.46
2024-04-22T00:09:06.421Z,-1.46
2024-04-22T00:09:38.371Z,-1.46
2024-04-22T00:10:11.300Z,-1.46
2024-04-22T00:10:37.532Z,-1.46
2024-04-22T00:11:03.206Z,-1.46
2024-04-22T00:11:30.491Z,-1.46
2024-04-22T00:12:04.558Z,-1.46
2024-04-22T00:12:34.322Z,-1.46
2024-04-22T00:13:06.626Z,-1.46
2024-04-22T00:13:38.436Z,-1.46
2024-04-22T00:14:10.457Z,-1.46
2024-04-22T00:14:37.537Z,-1.46
2024-04-22T00:14:58.214Z,-1.46
2024-04-22T00:15:31.736Z,-1.46
2024-04-22T00:16:02.324Z,-1.46
2024-04-22T00:16:34.620Z,-1.46
2024-04-22T00:17:06.552Z,-1.46
2024-04-22T00:17:38.661Z,-1.46
2024-04-22T00:18:10.878Z,-1.46
2024-04-22T00:18:37.631Z,-1.46
2024-04-22T00:18:58.282Z,-1.46
2024-04-22T00:19:30.203Z,-1.46
2024-04-22T00:20:04.238Z,-1.46
2024-04-22T00:20:34.228Z,-1.46
2024-04-22T00:21:06.296Z,-1.46
2024-04-22T00:21:38.296Z,-1.46
2024-04-22T00:22:10.574Z,-1.46
2024-04-22T00:22:37.802Z,-1.46
2024-04-22T00:22:58.252Z,-1.46
2024-04-22T00:23:30.381Z,-1.46
2024-04-22T00:24:02.361Z,-1.51
2024-04-22T00:24:34.753Z,-1.51
2024-04-22T00:25:07.947Z,-1.35
2024-04-22T00:25:38.366Z,-1.35
2024-04-22T00:26:10.443Z,-1.35
2024-04-22T00:26:37.409Z,-1.35
2024-04-22T00:26:58.626Z,-1.35
2024-04-22T00:27:30.503Z,-1.35
2024-04-22T00:28:02.507Z,-1.35
2024-04-22T00:28:35.523Z,-1.35
2024-04-22T00:29:06.546Z,-1.35
2024-04-22T00:29:38.344Z,-1.35
2024-04-22T00:30:11.730Z,-1.35
2024-04-22T00:30:37.423Z,-1.35
2024-04-22T00:30:59.299Z,-1.35
2024-04-22T00:31:30.328Z,-1.35
2024-04-22T00:32:02.276Z,-1.35
2024-04-22T00:32:34.559Z,-1.35
2024-04-22T00:33:06.672Z,-1.35
2024-04-22T00:33:39.857Z,-1.35
2024-04-22T00:34:10.357Z,-1.31
2024-04-22T00:34:37.477Z,-1.35
2024-04-22T00:34:58.656Z,-1.31
2024-04-22T00:35:31.608Z,-1.31
2024-04-22T00:36:02.388Z,-1.31
2024-04-22T00:36:35.952Z,-1.31
2024-04-22T00:37:06.436Z,-1.35
2024-04-22T00:37:38.462Z,-1.35
2024-04-22T00:38:10.345Z,-1.35
2024-04-22T00:38:37.325Z,-1.35
2024-04-22T00:38:58.229Z,-1.35
2024-04-22T00:39:30.185Z,-1.35
2024-04-22T00:40:05.155Z,-1.35
2024-04-22T00:40:35.101Z,-1.35
2024-04-22T00:41:06.356Z,-1.35
2024-04-22T00:41:38.537Z,-1.35
2024-04-22T00:42:10.413Z,-1.35
2024-04-22T00:42:37.418Z,-1.35
2024-04-22T00:42:58.225Z,-1.46
2024-04-22T00:43:30.413Z,-1.46
2024-04-22T00:44:02.485Z,-1.46
2024-04-22T00:44:34.340Z,-1.35
2024-04-22T00:45:08.912Z,-1.35
2024-04-22T00:45:38.897Z,-1.35
2024-04-22T00:46:10.293Z,-1.35
2024-04-22T00:46:37.371Z,-1.35
2024-04-22T00:46:58.953Z,-1.35
2024-04-22T00:47:30.563Z,-1.46
2024-04-22T00:48:03.693Z,-1.35
2024-04-22T00:48:34.244Z,-1.35
2024-04-22T00:49:06.630Z,-1.35
2024-04-22T00:49:38.480Z,-1.35
2024-04-22T00:50:12.195Z,-1.35
2024-04-22T00:50:37.399Z,-1.35
2024-04-22T00:50:59.013Z,-1.35
2024-04-22T00:51:30.317Z,-1.35
2024-04-22T00:52:02.316Z,-1.46
2024-04-22T00:52:34.732Z,-1.46
2024-04-22T00:53:06.295Z,-1.46
2024-04-22T00:53:38.726Z,-1.46
2024-04-22T00:54:10.391Z,-1.46
2024-04-22T00:54:37.614Z,-1.46
2024-04-22T00:54:59.933Z,-1.46
2024-04-22T00:55:31.255Z,-1.46
2024-04-22T00:56:02.295Z,-1.57
2024-04-22T00:56:34.712Z,-1.57
2024-04-22T00:57:06.365Z,-1.57
2024-04-22T00:57:38.310Z,-1.43
2024-04-22T00:58:10.577Z,-1.57
2024-04-22T00:58:38.055Z,-1.57
2024-04-22T00:58:58.433Z,-1.43
2024-04-22T00:59:30.211Z,-1.57
2024-04-22T01:00:05.049Z,-1.43
2024-04-22T01:00:34.358Z,-1.57
2024-04-22T01:01:08.607Z,-1.57
2024-04-22T01:01:38.353Z,-1.43
2024-04-22T01:02:10.684Z,-1.43
2024-04-22T01:02:37.527Z,-1.43
2024-04-22T01:02:58.709Z,-1.43
2024-04-22T01:03:31.172Z,-1.57
2024-04-22T01:04:02.304Z,-1.43
2024-04-22T01:04:34.355Z,-1.54
2024-04-22T01:05:09.087Z,-1.54
2024-04-22T01:05:39.525Z,-1.54
2024-04-22T01:06:10.394Z,-1.54
2024-04-22T01:06:37.427Z,-1.54
2024-04-22T01:06:58.219Z,-1.54
2024-04-22T01:07:30.438Z,-1.54
2024-04-22T01:08:02.184Z,-1.54
2024-04-22T01:08:34.617Z,-1.54
2024-04-22T01:09:06.568Z,-1.54
2024-04-22T01:09:39.132Z,-1.54
2024-04-22T01:10:12.122Z,-1.54
2024-04-22T01:10:37.529Z,-1.54
2024-04-22T01:10:59.596Z,-1.54
2024-04-22T01:11:30.687Z,-1.54
2024-04-22T01:12:02.838Z,-1.54
2024-04-22T01:12:34.364Z,-1.54
2024-04-22T01:13:06.601Z,-1.54
2024-04-22T01:13:38.596Z,-1.54
2024-04-22T01:14:10.247Z,-1.54
2024-04-22T01:14:37.600Z,-1.54
2024-04-22T01:14:58.602Z,-1.54
2024-04-22T01:15:31.719Z,-1.54
2024-04-22T01:16:02.259Z,-1.54
2024-04-22T01:16:34.305Z,-1.54
2024-04-22T01:17:06.513Z,-1.54
2024-04-22T01:17:39.041Z,-1.54
2024-04-22T01:18:10.895Z,-1.54
2024-04-22T01:18:37.608Z,-1.54
2024-04-22T01:18:58.639Z,-1.54
2024-04-22T01:19:30.428Z,-1.54
2024-04-22T01:20:04.356Z,-1.54
2024-04-22T01:20:33.700Z,-1.54
2024-04-22T01:21:05.738Z,-1.54
2024-04-22T01:21:37.818Z,-1.54
2024-04-22T01:22:09.594Z,-1.54
2024-04-22T01:22:36.881Z,-1.54
2024-04-22T01:22:57.663Z,-1.54
2024-04-22T01:23:29.724Z,-1.54
2024-04-22T01:24:01.849Z,-1.54
2024-04-22T01:24:33.802Z,-1.54
2024-04-22T01:25:06.844Z,-1.43
2024-04-22T01:25:37.471Z,-1.43
2024-04-22T01:26:09.638Z,-1.43
2024-04-22T01:26:36.877Z,-1.43
2024-04-22T01:26:57.758Z,-1.43
2024-04-22T01:27:29.592Z,-1.43
2024-04-22T01:28:01.772Z,-1.43
2024-04-22T01:28:33.764Z,-1.54
2024-04-22T01:29:05.420Z,-1.54
2024-04-22T01:29:37.387Z,-1.54
2024-04-22T01:30:10.568Z,-1.54
2024-04-22T01:30:36.833Z,-1.54
2024-04-22T01:30:58.782Z,-1.54
2024-04-22T01:31:29.472Z,-1.43
2024-04-22T01:32:01.508Z,-1.43
2024-04-22T01:32:33.496Z,-1.43
2024-04-22T01:33:05.587Z,-1.43
2024-04-22T01:33:37.421Z,-1.43
2024-04-22T01:34:09.505Z,-1.43
2024-04-22T01:34:36.601Z,-1.43
2024-04-22T01:34:57.487Z,-1.43
2024-04-22T01:35:30.300Z,-1.43
2024-04-22T01:36:02.119Z,-1.57
2024-04-22T01:36:35.024Z,-1.57
2024-04-22T01:37:06.876Z,-1.57
2024-04-22T01:37:38.492Z,-1.46
2024-04-22T01:38:26.948Z,-1.46
2024-04-22T01:38:43.723Z,-1.46
2024-04-22T01:39:04.239Z,-1.46
2024-04-22T01:39:37.231Z,-1.46
2024-04-22T01:40:22.056Z,-1.46
2024-04-22T01:40:43.114Z,-1.46
2024-04-22T01:41:09.504Z,-1.46
2024-04-22T01:41:41.048Z,-1.46
2024-04-22T01:42:12.243Z,-1.35
2024-04-22T01:42:41.553Z,-1.35
2024-04-22T01:43:00.281Z,-1.35
2024-04-22T01:43:32.781Z,-1.35
2024-04-22T01:44:04.392Z,-1.51
2024-04-22T01:44:35.366Z,-1.51
2024-04-22T01:45:09.240Z,-1.51
2024-04-22T01:45:38.543Z,-1.51
2024-04-22T01:46:10.651Z,-1.51
2024-04-22T01:46:37.628Z,-1.51
2024-04-22T01:46:59.670Z,-1.51
2024-04-22T01:47:30.335Z,-1.51
2024-04-22T01:48:03.134Z,-1.51
2024-04-22T01:48:34.794Z,-1.51
2024-04-22T01:49:07.010Z,-1.51
2024-04-22T01:49:39.099Z,-1.46
2024-04-22T01:50:12.670Z,-1.46
2024-04-22T01:50:37.682Z,-1.46
2024-04-22T01:50:59.459Z,-1.46
2024-04-22T01:51:30.436Z,-1.46
2024-04-22T01:52:02.302Z,-1.46
2024-04-22T01:52:34.342Z,-1.46
2024-04-22T01:53:06.424Z,-1.46
2024-04-22T01:53:38.784Z,-1.46
2024-04-22T01:54:11.440Z,-1.46
2024-04-22T01:54:37.948Z,-1.46
2024-04-22T01:54:58.457Z,-1.46
2024-04-22T01:55:31.565Z,-1.46
2024-04-22T01:56:02.679Z,-1.46
2024-04-22T01:56:34.217Z,-1.46
2024-04-22T01:57:06.504Z,-1.46
2024-04-22T01:57:38.566Z,-1.46
2024-04-22T01:58:10.516Z,-1.35
2024-04-22T01:58:37.574Z,-1.35
2024-04-22T01:58:58.314Z,-1.35
2024-04-22T01:59:30.427Z,-1.35
2024-04-22T02:00:05.961Z,-1.35
2024-04-22T02:00:40.346Z,-1.35
2024-04-22T02:01:08.126Z,-1.35
2024-04-22T02:01:38.560Z,-1.35
2024-04-22T02:02:10.400Z,-1.35
2024-04-22T02:02:37.855Z,-1.35
2024-04-22T02:02:59.038Z,-1.35
2024-04-22T02:03:30.414Z,-1.35
2024-04-22T02:04:02.402Z,-1.35
2024-04-22T02:04:34.464Z,-1.35
2024-04-22T02:05:07.759Z,-1.35
2024-04-22T02:05:38.474Z,-1.35
2024-04-22T02:06:10.398Z,-1.35
2024-04-22T02:06:37.535Z,-1.35
2024-04-22T02:06:58.403Z,-1.35
2024-04-22T02:07:30.626Z,-1.35
2024-04-22T02:08:02.503Z,-1.46
2024-04-22T02:08:35.558Z,-1.46
2024-04-22T02:09:06.481Z,-1.46
2024-04-22T02:09:38.424Z,-1.46
2024-04-22T02:10:21.334Z,-1.46
2024-04-22T02:10:38.821Z,-1.46
2024-04-22T02:10:59.714Z,-1.46
2024-04-22T02:11:30.520Z,-1.46
2024-04-22T02:12:02.478Z,-1.46
2024-04-22T02:12:34.378Z,-1.31
2024-04-22T02:13:07.180Z,-1.46
2024-04-22T02:13:38.747Z,-1.31
2024-04-22T02:14:10.378Z,-1.31
2024-04-22T02:14:37.815Z,-1.46
2024-04-22T02:14:58.351Z,-1.31
2024-04-22T02:15:31.741Z,-1.31
2024-04-22T02:16:02.580Z,-1.31
2024-04-22T02:16:34.318Z,-1.31
2024-04-22T02:17:06.639Z,-1.31
2024-04-22T02:17:38.618Z,-1.31
2024-04-22T02:18:10.508Z,-1.31
2024-04-22T02:18:37.711Z,-1.46
2024-04-22T02:18:58.591Z,-1.31
2024-04-22T02:19:30.681Z,-1.31
2024-04-22T02:20:04.578Z,-1.31
2024-04-22T02:20:34.258Z,-1.31
2024-04-22T02:21:06.564Z,-1.31
2024-04-22T02:21:38.491Z,-1.31
2024-04-22T02:22:10.606Z,-1.31
2024-04-22T02:22:37.710Z,-1.31
2024-04-22T02:22:59.340Z,-1.31
2024-04-22T02:23:30.653Z,-1.31
2024-04-22T02:24:02.454Z,-1.31
2024-04-22T02:24:34.305Z,-1.31
2024-04-22T02:25:07.860Z,-1.31
2024-04-22T02:25:38.523Z,-1.31
2024-04-22T02:26:10.360Z,-1.31
2024-04-22T02:26:37.786Z,-1.31
2024-04-22T02:26:59.105Z,-1.31
2024-04-22T02:27:30.375Z,-1.31
2024-04-22T02:28:02.516Z,-1.31
2024-04-22T02:28:34.282Z,-1.31
2024-04-22T02:29:07.589Z,-1.31
2024-04-22T02:29:38.373Z,-1.31
2024-04-22T02:30:12.606Z,-1.31
2024-04-22T02:30:37.783Z,-1.31
2024-04-22T02:30:59.246Z,-1.31
2024-04-22T02:31:30.524Z,-1.31
2024-04-22T02:32:02.946Z,-1.31
2024-04-22T02:32:34.305Z,-1.31
2024-04-22T02:33:06.514Z,-1.35
2024-04-22T02:33:38.899Z,-1.35
2024-04-22T02:34:10.893Z,-1.35
2024-04-22T02:34:37.536Z,-1.35
2024-04-22T02:34:58.251Z,-1.35
2024-04-22T02:35:31.546Z,-1.46
2024-04-22T02:36:02.415Z,-1.46
2024-04-22T02:36:34.212Z,-1.46
2024-04-22T02:37:06.396Z,-1.46
2024-04-22T02:37:38.464Z,-1.57
2024-04-22T02:38:10.364Z,-1.43
2024-04-22T02:38:38.083Z,-1.43
2024-04-22T02:38:58.260Z,-1.43
2024-04-22T02:39:30.522Z,-1.43
2024-04-22T02:40:04.957Z,-1.43
2024-04-22T02:40:34.386Z,-1.43
2024-04-22T02:41:06.407Z,-1.43
2024-04-22T02:41:38.438Z,-1.43
2024-04-22T02:42:10.709Z,-1.43
2024-04-22T02:42:37.666Z,-1.43
2024-04-22T02:42:58.446Z,-1.43
2024-04-22T02:43:30.960Z,-1.43
2024-04-22T02:44:02.518Z,-1.43
2024-04-22T02:44:34.425Z,-1.32
2024-04-22T02:45:08.565Z,-1.32
2024-04-22T02:45:38.486Z,-1.32
2024-04-22T02:46:11.025Z,-1.21
2024-04-22T02:46:37.535Z,-1.21
2024-04-22T02:46:58.932Z,-1.21
2024-04-22T02:47:31.012Z,-1.16
2024-04-22T02:48:02.687Z,-1.16
2024-04-22T02:48:34.319Z,-1.16
2024-04-22T02:49:06.678Z,-1.16
2024-04-22T02:49:39.774Z,-1.05
2024-04-22T02:50:11.967Z,-1.05
2024-04-22T02:50:37.572Z,-1.20
2024-04-22T02:50:59.161Z,-1.20
2024-04-22T02:51:30.554Z,-1.20
2024-04-22T02:52:02.557Z,-1.20
2024-04-22T02:52:34.775Z,-1.20
2024-04-22T02:53:06.416Z,-1.20
2024-04-22T02:53:38.683Z,-1.20
2024-04-22T02:54:10.886Z,-1.20
2024-04-22T02:54:37.495Z,-1.20
2024-04-22T02:54:58.379Z,-1.20
2024-04-22T02:55:31.340Z,-1.20
2024-04-22T02:56:02.873Z,-1.20
2024-04-22T02:56:34.442Z,-1.05
2024-04-22T02:57:06.485Z,-1.20
2024-04-22T02:57:38.407Z,-1.20
2024-04-22T02:58:10.484Z,-1.08
2024-04-22T02:58:40.763Z,-.94
2024-04-22T02:58:58.540Z,-.94
2024-04-22T02:59:30.594Z,-.94
2024-04-22T03:00:05.701Z,-.94
2024-04-22T03:00:34.702Z,-.94
2024-04-22T03:01:07.729Z,-.94
2024-04-22T03:01:38.505Z,-.94
2024-04-22T03:02:11.430Z,-.94
2024-04-22T03:02:37.748Z,-.94
2024-04-22T03:03:00.368Z,-.94
2024-04-22T03:03:30.599Z,-.94
2024-04-22T03:04:03.098Z,-.94
2024-04-22T03:04:34.572Z,-.94
2024-04-22T03:05:08.737Z,-.94
2024-04-22T03:05:38.765Z,-.94
2024-04-22T03:06:10.417Z,-.94
2024-04-22T03:06:37.628Z,-.94
2024-04-22T03:06:59.150Z,-.94
2024-04-22T03:07:30.828Z,-.94
2024-04-22T03:08:02.624Z,-.94
2024-04-22T03:08:34.365Z,-.94
2024-04-22T03:09:06.503Z,-.94
2024-04-22T03:09:38.518Z,-.94
2024-04-22T03:10:12.056Z,-.94
2024-04-22T03:10:37.607Z,-.94
2024-04-22T03:10:59.091Z,-.94
2024-04-22T03:11:30.531Z,-.94
2024-04-22T03:12:02.470Z,-.94
2024-04-22T03:12:34.431Z,-.94
2024-04-22T03:13:06.669Z,-.94
2024-04-22T03:13:38.774Z,-.94
2024-04-22T03:14:11.391Z,-.94
2024-04-22T03:14:37.575Z,-.94
2024-04-22T03:14:58.407Z,-.94
2024-04-22T03:15:32.220Z,-.94
2024-04-22T03:16:02.759Z,-.94
2024-04-22T03:16:34.854Z,-.94
2024-04-22T03:17:06.534Z,-.94
2024-04-22T03:17:38.593Z,-.94
2024-04-22T03:18:11.147Z,-.94
2024-04-22T03:18:38.148Z,-.94
2024-04-22T03:18:58.347Z,-.94
2024-04-22T03:19:30.704Z,-1.05
2024-04-22T03:20:04.764Z,-1.05
2024-04-22T03:20:34.366Z,-1.05
2024-04-22T03:21:06.618Z,-1.05
2024-04-22T03:21:38.462Z,-1.05
2024-04-22T03:22:10.467Z,-.94
2024-04-22T03:22:37.925Z,-.94
2024-04-22T03:22:58.407Z,-.94
2024-04-22T03:23:30.431Z,-.94
2024-04-22T03:24:02.486Z,-1.05
2024-04-22T03:24:35.718Z,-.94
2024-04-22T03:25:08.167Z,-.94
2024-04-22T03:25:38.613Z,-.94
2024-04-22T03:26:11.419Z,-.94
2024-04-22T03:26:39.046Z,-.94
2024-04-22T03:26:58.531Z,-.94
2024-04-22T03:27:31.422Z,-.94
2024-04-22T03:28:03.303Z,-.94
2024-04-22T03:28:34.577Z,-.94
2024-04-22T03:29:06.398Z,-.94
2024-04-22T03:29:38.463Z,-.94
2024-04-22T03:30:12.847Z,-.94
2024-04-22T03:30:37.551Z,-.94
2024-04-22T03:30:59.271Z,-.94
2024-04-22T03:31:31.441Z,-.94
2024-04-22T03:32:02.784Z,-.94
2024-04-22T03:32:34.493Z,-1.05
2024-04-22T03:33:06.547Z,-1.05
2024-04-22T03:33:38.621Z,-1.05
2024-04-22T03:34:11.592Z,-1.05
2024-04-22T03:34:37.513Z,-1.05
2024-04-22T03:34:58.371Z,-1.05
2024-04-22T03:35:32.240Z,-1.05
2024-04-22T03:36:02.731Z,-1.05
2024-04-22T03:36:34.750Z,-1.05
2024-04-22T03:36:51.368Z,-1.05
2024-04-22T03:37:22.475Z,-1.05
2024-04-22T03:37:44.444Z,-1.05
2024-04-22T03:38:11.474Z,-1.05
2024-04-22T03:38:37.870Z,-.94
2024-04-22T03:38:59.390Z,-1.05
2024-04-22T03:39:31.330Z,-.94
2024-04-22T03:40:04.661Z,-.94
2024-04-22T03:40:34.402Z,-.94
2024-04-22T03:41:06.404Z,-1.05
2024-04-22T03:41:38.573Z,-1.05
2024-04-22T03:42:11.538Z,-1.05
2024-04-22T03:42:37.762Z,-1.05
2024-04-22T03:42:58.468Z,-1.05
2024-04-22T03:43:31.425Z,-1.05
2024-04-22T03:44:02.490Z,-1.05
2024-04-22T03:44:35.355Z,-1.05
2024-04-22T03:45:11.206Z,-1.05
2024-04-22T03:45:38.670Z,-1.05
2024-04-22T03:46:12.600Z,-1.05
2024-04-22T03:46:38.148Z,-1.05
2024-04-22T03:46:58.986Z,-1.05
2024-04-22T03:47:31.503Z,-1.05
2024-04-22T03:48:02.742Z,-1.05
2024-04-22T03:48:35.137Z,-1.05
2024-04-22T03:49:07.721Z,-1.05
2024-04-22T03:49:39.078Z,-1.05
2024-04-22T03:50:12.918Z,-1.05
2024-04-22T03:50:37.431Z,-1.05
2024-04-22T03:51:01.258Z,-1.05
2024-04-22T03:51:32.142Z,-1.05
2024-04-22T03:52:02.554Z,-1.05
2024-04-22T03:52:34.671Z,-1.05
2024-04-22T03:53:07.205Z,-1.05
2024-04-22T03:53:38.919Z,-1.16
2024-04-22T03:54:11.890Z,-1.16
2024-04-22T03:54:37.708Z,-1.16
2024-04-22T03:54:58.782Z,-1.16
2024-04-22T03:55:32.349Z,-1.16
2024-04-22T03:56:02.883Z,-1.16
2024-04-22T03:56:34.427Z,-1.16
2024-04-22T03:57:07.035Z,-1.16
2024-04-22T03:57:39.209Z,-1.05
2024-04-22T03:58:11.437Z,-1.05
2024-04-22T03:58:37.846Z,-1.05
2024-04-22T03:58:58.609Z,-1.05
2024-04-22T03:59:32.813Z,-1.05
2024-04-22T04:00:06.403Z,-1.05
2024-04-22T04:00:35.386Z,-1.05
2024-04-22T04:01:10.118Z,-1.05
2024-04-22T04:01:38.650Z,-1.05
2024-04-22T04:02:11.682Z,-1.16
2024-04-22T04:02:38.731Z,-1.16
2024-04-22T04:02:58.603Z,-1.16
2024-04-22T04:03:31.385Z,-1.16
2024-04-22T04:04:02.767Z,-1.16
2024-04-22T04:04:34.546Z,-1.16
2024-04-22T04:05:08.380Z,-1.16
2024-04-22T04:05:38.628Z,-1.05
2024-04-22T04:06:11.328Z,-1.05
2024-04-22T04:06:37.786Z,-1.05
2024-04-22T04:06:58.619Z,-1.05
2024-04-22T04:07:31.360Z,-1.05
2024-04-22T04:08:02.706Z,-1.05
2024-04-22T04:08:34.393Z,-1.05
2024-04-22T04:09:06.778Z,-1.20
2024-04-22T04:09:38.547Z,-1.20
2024-04-22T04:10:12.955Z,-1.05
2024-04-22T04:10:37.717Z,-1.20
2024-04-22T04:10:59.860Z,-1.20
2024-04-22T04:11:31.482Z,-1.20
2024-04-22T04:12:03.221Z,-1.20
2024-04-22T04:12:34.678Z,-1.20
2024-04-22T04:13:06.754Z,-1.20
2024-04-22T04:13:38.957Z,-1.20
2024-04-22T04:14:11.489Z,-1.20
2024-04-22T04:14:37.668Z,-1.20
2024-04-22T04:14:59.219Z,-1.20
2024-04-22T04:15:33.033Z,-1.20
2024-04-22T04:16:03.166Z,-1.20
2024-04-22T04:16:35.377Z,-1.20
2024-04-22T04:17:07.126Z,-1.08
2024-04-22T04:17:38.826Z,-1.20
2024-04-22T04:18:11.645Z,-1.20
2024-04-22T04:18:37.957Z,-1.20
2024-04-22T04:18:58.835Z,-1.20
2024-04-22T04:19:31.575Z,-1.20
2024-04-22T04:20:05.622Z,-1.20
2024-04-22T04:20:34.656Z,-1.20
2024-04-22T04:21:07.034Z,-1.20
2024-04-22T04:21:38.884Z,-1.20
2024-04-22T04:22:12.828Z,-1.20
2024-04-22T04:22:38.070Z,-1.20
2024-04-22T04:22:58.894Z,-1.31
2024-04-22T04:23:31.549Z,-1.31
2024-04-22T04:24:02.816Z,-1.31
2024-04-22T04:24:34.510Z,-1.31
2024-04-22T04:25:08.582Z,-1.31
2024-04-22T04:25:38.795Z,-1.31
2024-04-22T04:26:11.788Z,-1.20
2024-04-22T04:26:37.723Z,-1.20
2024-04-22T04:26:58.712Z,-1.20
2024-04-22T04:27:32.071Z,-1.20
2024-04-22T04:28:02.677Z,-1.20
2024-04-22T04:28:34.575Z,-1.20
2024-04-22T04:29:06.841Z,-1.35
2024-04-22T04:29:38.642Z,-1.20
2024-04-22T04:30:12.948Z,-1.35
2024-04-22T04:30:38.209Z,-1.35
2024-04-22T04:31:00.460Z,-1.35
2024-04-22T04:31:31.758Z,-1.35
2024-04-22T04:32:03.148Z,-1.35
2024-04-22T04:32:35.131Z,-1.35
2024-04-22T04:33:06.826Z,-1.35
2024-04-22T04:33:38.834Z,-1.35
2024-04-22T04:34:11.761Z,-1.51
2024-04-22T04:34:37.912Z,-1.51
2024-04-22T04:34:59.613Z,-1.51
2024-04-22T04:35:34.153Z,-1.51
2024-04-22T04:36:03.089Z,-1.51
2024-04-22T04:36:35.133Z,-1.51
2024-04-22T04:36:51.601Z,-1.51
2024-04-22T04:37:22.898Z,-1.51
2024-04-22T04:37:44.567Z,-1.51
2024-04-22T04:38:11.668Z,-1.51
2024-04-22T04:38:38.606Z,-1.51
2024-04-22T04:38:58.880Z,-1.51
2024-04-22T04:39:31.537Z,-1.66
2024-04-22T04:40:05.109Z,-1.77
2024-04-22T04:40:35.356Z,-1.77
2024-04-22T04:41:06.893Z,-1.77
2024-04-22T04:41:38.838Z,-1.77
2024-04-22T04:42:11.715Z,-1.77
2024-04-22T04:42:38.492Z,-1.77
2024-04-22T04:42:58.916Z,-1.77
2024-04-22T04:43:31.809Z,-1.77
2024-04-22T04:44:03.341Z,-1.77
2024-04-22T04:44:34.719Z,-1.92
2024-04-22T04:44:52.129Z,-1.92
2024-04-22T04:45:24.705Z,-1.92
2024-04-22T04:45:44.814Z,-1.77
2024-04-22T04:46:11.712Z,-1.92
2024-04-22T04:46:42.789Z,-1.92
2024-04-22T04:47:15.202Z,-1.92
2024-04-22T04:47:31.660Z,-1.92
2024-04-22T04:48:02.791Z,-1.92
2024-04-22T04:48:34.771Z,-1.92
2024-04-22T04:49:06.878Z,-1.92
2024-04-22T04:49:39.164Z,-1.92
2024-04-22T04:50:12.821Z,-1.92
2024-04-22T04:50:42.618Z,-1.92
2024-04-22T04:51:14.880Z,-1.92
2024-04-22T04:51:47.419Z,-1.92
2024-04-22T04:52:18.669Z,-1.92
2024-04-22T04:52:40.918Z,-1.92
2024-04-22T04:53:07.269Z,-1.92
2024-04-22T04:53:38.841Z,-1.92
2024-04-22T04:54:11.687Z,-1.92
2024-04-22T04:54:38.037Z,-1.92
2024-04-22T04:54:59.431Z,-1.92
2024-04-22T04:55:32.879Z,-1.92
2024-04-22T04:56:03.680Z,-1.92
2024-04-22T04:56:34.798Z,-1.92
2024-04-22T04:57:08.373Z,-1.92
2024-04-22T04:57:38.854Z,-1.92
2024-04-22T04:58:11.664Z,-1.92
2024-04-22T04:58:38.036Z,-1.92
2024-04-22T04:58:58.672Z,-1.92
2024-04-22T04:59:31.603Z,-1.92
2024-04-22T05:00:06.488Z,-1.77
2024-04-22T05:00:35.530Z,-1.77
2024-04-22T05:01:08.455Z,-1.77
2024-04-22T05:01:39.190Z,-1.77
2024-04-22T05:02:12.060Z,-1.77
2024-04-22T05:02:38.058Z,-1.77
2024-04-22T05:02:58.780Z,-1.77
2024-04-22T05:03:31.747Z,-1.77
2024-04-22T05:04:03.514Z,-1.77
2024-04-22T05:04:34.767Z,-1.77
2024-04-22T05:05:08.388Z,-1.77
2024-04-22T05:05:38.762Z,-1.77
2024-04-22T05:06:11.612Z,-1.77
2024-04-22T05:06:38.409Z,-1.77
2024-04-22T05:06:58.674Z,-1.82
2024-04-22T05:07:35.346Z,-1.82
2024-04-22T05:08:02.771Z,-1.82
2024-04-22T05:08:34.686Z,-1.82
2024-04-22T05:09:07.302Z,-1.82
2024-04-22T05:09:38.931Z,-1.82
2024-04-22T05:10:12.680Z,-1.82
2024-04-22T05:10:37.890Z,-1.82
2024-04-22T05:10:59.645Z,-1.82
2024-04-22T05:11:33.286Z,-1.82
2024-04-22T05:12:02.822Z,-1.82
2024-04-22T05:12:34.978Z,-1.82
2024-04-22T05:13:06.845Z,-1.82
2024-04-22T05:13:38.979Z,-1.82
2024-04-22T05:14:11.641Z,-1.82
2024-04-22T05:14:38.483Z,-1.82
2024-04-22T05:14:59.251Z,-1.82
2024-04-22T05:15:40.450Z,-1.97
2024-04-22T05:16:03.224Z,-1.97
2024-04-22T05:16:34.720Z,-1.97
2024-04-22T05:17:06.989Z,-1.97
2024-04-22T05:17:38.916Z,-1.97
2024-04-22T05:18:12.069Z,-2.14
2024-04-22T05:18:39.951Z,-1.97
2024-04-22T05:18:58.853Z,-1.97
2024-04-22T05:19:31.693Z,-1.97
2024-04-22T05:20:06.134Z,-2.08
2024-04-22T05:20:34.685Z,-2.14
2024-04-22T05:21:06.934Z,-2.14
2024-04-22T05:21:39.058Z,-2.14
2024-04-22T05:22:12.418Z,-2.14
2024-04-22T05:22:38.122Z,-2.14
2024-04-22T05:22:59.125Z,-2.14
2024-04-22T05:23:32.335Z,-2.09
2024-04-22T05:24:03.166Z,-2.25
2024-04-22T05:24:34.762Z,-2.25
2024-04-22T05:25:08.977Z,-2.25
2024-04-22T05:25:39.249Z,-2.25
2024-04-22T05:26:11.788Z,-2.14
2024-04-22T05:26:38.162Z,-2.14
2024-04-22T05:26:58.784Z,-2.14
2024-04-22T05:27:34.282Z,-2.18
2024-04-22T05:28:03.015Z,-2.18
2024-04-22T05:28:35.990Z,-2.18
2024-04-22T05:28:51.981Z,-2.18
2024-04-22T05:29:23.056Z,-2.18
2024-04-22T05:29:44.594Z,-2.18
2024-04-22T05:30:13.290Z,-2.18
2024-04-22T05:30:38.288Z,-2.18
2024-04-22T05:30:59.947Z,-2.18
2024-04-22T05:31:31.895Z,-2.03
2024-04-22T05:32:03.144Z,-2.03
2024-04-22T05:32:35.027Z,-2.18
2024-04-22T05:33:08.934Z,-2.18
2024-04-22T05:33:39.692Z,-2.18
2024-04-22T05:34:12.583Z,-2.30
2024-04-22T05:34:38.095Z,-2.30
2024-04-22T05:34:58.908Z,-2.30
2024-04-22T05:35:32.930Z,-2.30
2024-04-22T05:36:03.086Z,-2.30
2024-04-22T05:36:35.346Z,-2.30
2024-04-22T05:37:07.270Z,-2.30
2024-04-22T05:37:39.670Z,-2.41
2024-04-22T05:38:13.253Z,-2.41
2024-04-22T05:38:38.233Z,-2.41
2024-04-22T05:38:59.541Z,-2.30
2024-04-22T05:39:32.266Z,-2.30
2024-04-22T05:40:05.515Z,-2.46
2024-04-22T05:40:35.002Z,-2.46
2024-04-22T05:41:06.931Z,-2.46
2024-04-22T05:41:39.053Z,-2.46
2024-04-22T05:42:12.167Z,-2.46
2024-04-22T05:42:38.648Z,-2.46
2024-04-22T05:42:59.004Z,-2.46
2024-04-22T05:43:31.935Z,-2.57
2024-04-22T05:44:03.054Z,-2.57
2024-04-22T05:44:34.731Z,-2.57
2024-04-22T05:45:09.327Z,-2.74
2024-04-22T05:45:39.209Z,-2.74
2024-04-22T05:46:11.948Z,-2.63
2024-04-22T05:46:38.703Z,-2.63
2024-04-22T05:46:59.345Z,-2.63
2024-04-22T05:47:34.141Z,-2.63
2024-04-22T05:48:03.188Z,-2.63
2024-04-22T05:48:36.007Z,-2.51
2024-04-22T05:49:07.092Z,-2.51
2024-04-22T05:49:39.261Z,-2.68
2024-04-22T05:50:13.037Z,-2.79
2024-04-22T05:50:39.348Z,-2.79
2024-04-22T05:50:59.874Z,-2.79
2024-04-22T05:51:32.541Z,-2.63
2024-04-22T05:52:04.663Z,-2.79
2024-04-22T05:52:35.666Z,-2.79
2024-04-22T05:52:52.808Z,-2.79
2024-04-22T05:53:22.990Z,-2.90
2024-04-22T05:53:45.822Z,-2.90
2024-04-22T05:54:12.011Z,-2.90
2024-04-22T05:54:38.159Z,-2.90
2024-04-22T05:54:59.163Z,-2.90
2024-04-22T05:55:33.563Z,-2.90
2024-04-22T05:56:02.954Z,-2.79
2024-04-22T05:56:34.970Z,-2.79
2024-04-22T05:57:07.086Z,-2.79
2024-04-22T05:57:39.325Z,-2.79
2024-04-22T05:58:11.936Z,-2.79
2024-04-22T05:58:38.702Z,-2.68
2024-04-22T05:58:59.208Z,-2.85
2024-04-22T05:59:32.612Z,-2.85
2024-04-22T06:00:06.683Z,-2.85
2024-04-22T06:00:35.093Z,-2.85
2024-04-22T06:00:53.844Z,-2.85
2024-04-22T06:01:23.219Z,-2.68
2024-04-22T06:01:45.049Z,-2.85
2024-04-22T06:02:12.267Z,-2.75
2024-04-22T06:02:38.679Z,-2.75
2024-04-22T06:03:00.211Z,-2.75
2024-04-22T06:03:32.451Z,-2.75
2024-04-22T06:04:03.179Z,-2.64
2024-04-22T06:04:35.454Z,-2.64
2024-04-22T06:05:09.217Z,-2.76
2024-04-22T06:05:39.206Z,-2.76
2024-04-22T06:06:12.159Z,-2.76
2024-04-22T06:06:38.962Z,-2.76
2024-04-22T06:06:58.936Z,-2.94
2024-04-22T06:07:32.980Z,-2.76
2024-04-22T06:08:03.106Z,-2.76
2024-04-22T06:08:34.985Z,-2.98
2024-04-22T06:08:52.431Z,-2.98
2024-04-22T06:09:23.493Z,-2.98
2024-04-22T06:09:44.861Z,-2.98
2024-04-22T06:10:16.802Z,-2.81
2024-04-22T06:10:38.184Z,-2.98
2024-04-22T06:10:59.688Z,-2.81
2024-04-22T06:11:32.474Z,-2.98
2024-04-22T06:12:15.045Z,-2.98
2024-04-22T06:12:34.850Z,-2.98
2024-04-22T06:13:07.416Z,-2.98
2024-04-22T06:13:39.532Z,-3.16
2024-04-22T06:14:11.975Z,-3.16
2024-04-22T06:14:37.960Z,-2.98
2024-04-22T06:14:59.191Z,-3.16
2024-04-22T06:15:33.216Z,-3.16
2024-04-22T06:16:03.108Z,-3.16
2024-04-22T06:16:35.564Z,-3.27
2024-04-22T06:17:06.950Z,-3.09
2024-04-22T06:17:39.376Z,-3.27
2024-04-22T06:18:12.707Z,-3.27
2024-04-22T06:18:38.167Z,-3.27
2024-04-22T06:19:00.206Z,-3.27
2024-04-22T06:19:32.515Z,-3.09
2024-04-22T06:20:06.859Z,-3.27
2024-04-22T06:20:41.639Z,-3.09
2024-04-22T06:21:07.179Z,-3.09
2024-04-22T06:21:39.380Z,-3.16
2024-04-22T06:22:12.088Z,-3.16
2024-04-22T06:22:38.134Z,-3.16
2024-04-22T06:22:59.161Z,-3.11
2024-04-22T06:23:32.132Z,-3.11